sensor_id;sensor_type;location;lat;lon;timestamp;temperature;humidity
55436;DHT22;41307;53.142;6.430;2023-08-01T00:02:10;16.30;99.90
55436;DHT22;41307;53.142;6.430;2023-08-01T00:04:36;16.50;99.90
55436;DHT22;41307;53.142;6.430;2023-08-01T00:07:02;16.30;99.90
55436;DHT22;41307;53.142;6.430;2023-08-01T00:09:28;16.30;99.90
55436;DHT22;41307;53.142;6.430;2023-08-01T00:11:54;16.20;99.90
55436;DHT22;41307;53.142;6.430;2023-08-01T00:14:20;16.20;99.90
55436;DHT22;41307;53.142;6.430;2023-08-01T00:16:50;16.20;99.90
55436;DHT22;41307;53.142;6.430;2023-08-01T00:19:16;16.30;99.90
55436;DHT22;41307;53.142;6.430;2023-08-01T00:21:41;16.20;99.90
55436;DHT22;41307;53.142;6.430;2023-08-01T00:24:07;16.10;99.90
55436;DHT22;41307;53.142;6.430;2023-08-01T00:26:35;16.10;99.90
55436;DHT22;41307;53.142;6.430;2023-08-01T00:29:01;16.10;99.90
55436;DHT22;41307;53.142;6.430;2023-08-01T00:31:27;16.10;99.90
55436;DHT22;41307;53.142;6.430;2023-08-01T00:33:52;16.00;99.90
55436;DHT22;41307;53.142;6.430;2023-08-01T00:36:18;16.00;99.90
55436;DHT22;41307;53.142;6.430;2023-08-01T00:38:44;16.10;99.90
55436;DHT22;41307;53.142;6.430;2023-08-01T00:41:10;15.90;99.90
55436;DHT22;41307;53.142;6.430;2023-08-01T00:43:36;15.90;99.90
55436;DHT22;41307;53.142;6.430;2023-08-01T00:46:05;15.80;99.90
55436;DHT22;41307;53.142;6.430;2023-08-01T00:48:32;15.90;99.90
55436;DHT22;41307;53.142;6.430;2023-08-01T00:50:59;15.90;99.90
55436;DHT22;41307;53.142;6.430;2023-08-01T00:53:25;15.80;99.90
55436;DHT22;41307;53.142;6.430;2023-08-01T00:55:52;15.80;99.90
55436;DHT22;41307;53.142;6.430;2023-08-01T00:58:19;15.80;99.90
55436;DHT22;41307;53.142;6.430;2023-08-01T01:00:45;15.70;99.90
55436;DHT22;41307;53.142;6.430;2023-08-01T01:03:12;15.70;99.90
55436;DHT22;41307;53.142;6.430;2023-08-01T01:05:47;15.70;99.90
55436;DHT22;41307;53.142;6.430;2023-08-01T01:08:15;15.70;99.90
55436;DHT22;41307;53.142;6.430;2023-08-01T01:10:40;15.50;99.90
55436;DHT22;41307;53.142;6.430;2023-08-01T01:13:06;15.60;99.90
55436;DHT22;41307;53.142;6.430;2023-08-01T01:15:32;15.40;99.90
55436;DHT22;41307;53.142;6.430;2023-08-01T01:17:58;15.40;99.90
55436;DHT22;41307;53.142;6.430;2023-08-01T01:20:24;15.30;99.90
55436;DHT22;41307;53.142;6.430;2023-08-01T01:22:52;15.30;99.90
55436;DHT22;41307;53.142;6.430;2023-08-01T01:25:20;15.30;99.90
55436;DHT22;41307;53.142;6.430;2023-08-01T01:27:48;15.20;99.90
55436;DHT22;41307;53.142;6.430;2023-08-01T01:30:15;15.20;99.90
55436;DHT22;41307;53.142;6.430;2023-08-01T01:32:41;15.20;99.90
55436;DHT22;41307;53.142;6.430;2023-08-01T01:35:07;15.10;99.90
55436;DHT22;41307;53.142;6.430;2023-08-01T01:37:33;15.10;99.90
55436;DHT22;41307;53.142;6.430;2023-08-01T01:39:59;15.10;99.90
55436;DHT22;41307;53.142;6.430;2023-08-01T01:42:25;15.00;99.90
55436;DHT22;41307;53.142;6.430;2023-08-01T01:44:50;15.10;99.90
55436;DHT22;41307;53.142;6.430;2023-08-01T01:47:17;15.00;99.90
55436;DHT22;41307;53.142;6.430;2023-08-01T01:49:43;15.10;99.90
55436;DHT22;41307;53.142;6.430;2023-08-01T01:52:08;15.00;99.90
55436;DHT22;41307;53.142;6.430;2023-08-01T01:54:34;15.00;99.90
55436;DHT22;41307;53.142;6.430;2023-08-01T01:57:00;15.00;99.90
55436;DHT22;41307;53.142;6.430;2023-08-01T01:59:25;15.00;99.90
55436;DHT22;41307;53.142;6.430;2023-08-01T02:01:51;15.00;99.90
55436;DHT22;41307;53.142;6.430;2023-08-01T02:04:17;14.90;99.90
55436;DHT22;41307;53.142;6.430;2023-08-01T02:06:43;14.90;99.90
55436;DHT22;41307;53.142;6.430;2023-08-01T02:09:09;14.80;99.90
55436;DHT22;41307;53.142;6.430;2023-08-01T02:11:35;14.80;99.90
55436;DHT22;41307;53.142;6.430;2023-08-01T02:14:00;14.70;99.90
55436;DHT22;41307;53.142;6.430;2023-08-01T02:16:28;14.80;99.90
55436;DHT22;41307;53.142;6.430;2023-08-01T02:18:54;14.60;99.90
55436;DHT22;41307;53.142;6.430;2023-08-01T02:21:19;14.70;99.90
55436;DHT22;41307;53.142;6.430;2023-08-01T02:23:45;14.60;99.90
55436;DHT22;41307;53.142;6.430;2023-08-01T02:26:11;14.60;99.90
55436;DHT22;41307;53.142;6.430;2023-08-01T02:28:37;14.60;99.90
55436;DHT22;41307;53.142;6.430;2023-08-01T02:31:02;14.60;99.90
55436;DHT22;41307;53.142;6.430;2023-08-01T02:33:28;14.50;99.90
55436;DHT22;41307;53.142;6.430;2023-08-01T02:35:54;14.50;99.90
55436;DHT22;41307;53.142;6.430;2023-08-01T02:38:19;14.60;99.90
55436;DHT22;41307;53.142;6.430;2023-08-01T02:40:45;14.60;99.90
55436;DHT22;41307;53.142;6.430;2023-08-01T02:43:11;14.70;99.90
55436;DHT22;41307;53.142;6.430;2023-08-01T02:45:36;14.60;99.90
55436;DHT22;41307;53.142;6.430;2023-08-01T02:48:02;14.70;99.90
55436;DHT22;41307;53.142;6.430;2023-08-01T02:50:28;14.60;99.90
55436;DHT22;41307;53.142;6.430;2023-08-01T02:52:54;14.50;99.90
55436;DHT22;41307;53.142;6.430;2023-08-01T02:55:19;14.60;99.90
55436;DHT22;41307;53.142;6.430;2023-08-01T02:57:45;14.80;99.90
55436;DHT22;41307;53.142;6.430;2023-08-01T03:00:11;14.70;99.90
55436;DHT22;41307;53.142;6.430;2023-08-01T03:02:38;14.60;99.90
55436;DHT22;41307;53.142;6.430;2023-08-01T03:05:08;14.70;99.90
55436;DHT22;41307;53.142;6.430;2023-08-01T03:07:34;14.70;99.90
55436;DHT22;41307;53.142;6.430;2023-08-01T03:10:00;14.70;99.90
55436;DHT22;41307;53.142;6.430;2023-08-01T03:12:26;14.90;99.90
55436;DHT22;41307;53.142;6.430;2023-08-01T03:14:52;14.80;99.90
55436;DHT22;41307;53.142;6.430;2023-08-01T03:17:18;14.90;99.90
55436;DHT22;41307;53.142;6.430;2023-08-01T03:19:44;14.90;99.90
55436;DHT22;41307;53.142;6.430;2023-08-01T03:22:10;15.00;99.90
55436;DHT22;41307;53.142;6.430;2023-08-01T03:24:36;14.90;99.90
55436;DHT22;41307;53.142;6.430;2023-08-01T03:27:02;14.90;99.90
55436;DHT22;41307;53.142;6.430;2023-08-01T03:29:28;15.00;99.90
55436;DHT22;41307;53.142;6.430;2023-08-01T03:31:54;15.10;99.90
55436;DHT22;41307;53.142;6.430;2023-08-01T03:34:20;15.00;99.90
55436;DHT22;41307;53.142;6.430;2023-08-01T03:36:46;15.00;99.90
55436;DHT22;41307;53.142;6.430;2023-08-01T03:39:11;15.10;99.90
55436;DHT22;41307;53.142;6.430;2023-08-01T03:41:37;15.00;99.90
55436;DHT22;41307;53.142;6.430;2023-08-01T03:44:03;15.10;99.90
55436;DHT22;41307;53.142;6.430;2023-08-01T03:46:29;15.00;99.90
55436;DHT22;41307;53.142;6.430;2023-08-01T03:48:58;15.10;99.90
55436;DHT22;41307;53.142;6.430;2023-08-01T03:51:23;15.00;99.90
55436;DHT22;41307;53.142;6.430;2023-08-01T03:53:49;15.10;99.90
55436;DHT22;41307;53.142;6.430;2023-08-01T03:56:15;15.00;99.90
55436;DHT22;41307;53.142;6.430;2023-08-01T03:58:41;15.10;99.90
55436;DHT22;41307;53.142;6.430;2023-08-01T04:01:07;14.90;99.90
55436;DHT22;41307;53.142;6.430;2023-08-01T04:03:32;15.00;99.90
55436;DHT22;41307;53.142;6.430;2023-08-01T04:06:01;15.00;99.90
55436;DHT22;41307;53.142;6.430;2023-08-01T04:08:26;14.90;99.90
55436;DHT22;41307;53.142;6.430;2023-08-01T04:10:52;14.90;99.90
55436;DHT22;41307;53.142;6.430;2023-08-01T04:13:18;15.00;99.90
55436;DHT22;41307;53.142;6.430;2023-08-01T04:15:44;14.90;99.90
55436;DHT22;41307;53.142;6.430;2023-08-01T04:18:09;15.00;99.90
55436;DHT22;41307;53.142;6.430;2023-08-01T04:20:35;14.90;99.90
55436;DHT22;41307;53.142;6.430;2023-08-01T04:23:01;14.90;99.90
55436;DHT22;41307;53.142;6.430;2023-08-01T04:25:27;14.90;99.90
55436;DHT22;41307;53.142;6.430;2023-08-01T04:27:53;14.90;99.90
55436;DHT22;41307;53.142;6.430;2023-08-01T04:30:19;14.90;99.90
55436;DHT22;41307;53.142;6.430;2023-08-01T04:32:45;14.90;99.90
55436;DHT22;41307;53.142;6.430;2023-08-01T04:35:10;14.90;99.90
55436;DHT22;41307;53.142;6.430;2023-08-01T04:37:39;14.90;99.90
55436;DHT22;41307;53.142;6.430;2023-08-01T04:40:05;14.90;99.90
55436;DHT22;41307;53.142;6.430;2023-08-01T04:42:31;14.90;99.90
55436;DHT22;41307;53.142;6.430;2023-08-01T04:44:57;14.90;99.90
55436;DHT22;41307;53.142;6.430;2023-08-01T04:47:23;14.80;99.90
55436;DHT22;41307;53.142;6.430;2023-08-01T04:49:49;14.90;99.90
55436;DHT22;41307;53.142;6.430;2023-08-01T04:52:15;15.10;99.90
55436;DHT22;41307;53.142;6.430;2023-08-01T04:54:41;15.20;99.90
55436;DHT22;41307;53.142;6.430;2023-08-01T04:57:06;15.20;99.90
55436;DHT22;41307;53.142;6.430;2023-08-01T04:59:32;15.50;99.90
55436;DHT22;41307;53.142;6.430;2023-08-01T05:01:58;15.50;99.90
55436;DHT22;41307;53.142;6.430;2023-08-01T05:04:24;15.60;99.90
55436;DHT22;41307;53.142;6.430;2023-08-01T05:06:50;15.60;99.90
55436;DHT22;41307;53.142;6.430;2023-08-01T05:09:16;15.60;99.90
55436;DHT22;41307;53.142;6.430;2023-08-01T05:11:42;15.60;99.90
55436;DHT22;41307;53.142;6.430;2023-08-01T05:14:07;15.70;99.90
55436;DHT22;41307;53.142;6.430;2023-08-01T05:16:33;15.60;99.90
55436;DHT22;41307;53.142;6.430;2023-08-01T05:18:59;15.60;99.90
55436;DHT22;41307;53.142;6.430;2023-08-01T05:21:24;15.60;99.90
55436;DHT22;41307;53.142;6.430;2023-08-01T05:23:50;15.50;99.90
55436;DHT22;41307;53.142;6.430;2023-08-01T05:26:16;15.40;99.90
55436;DHT22;41307;53.142;6.430;2023-08-01T05:28:42;15.40;99.90
55436;DHT22;41307;53.142;6.430;2023-08-01T05:31:08;15.30;99.90
55436;DHT22;41307;53.142;6.430;2023-08-01T05:33:33;15.30;99.90
55436;DHT22;41307;53.142;6.430;2023-08-01T05:35:59;15.40;99.90
55436;DHT22;41307;53.142;6.430;2023-08-01T05:38:25;15.40;99.90
55436;DHT22;41307;53.142;6.430;2023-08-01T05:40:50;15.40;99.90
55436;DHT22;41307;53.142;6.430;2023-08-01T05:43:16;15.40;99.90
55436;DHT22;41307;53.142;6.430;2023-08-01T05:45:42;15.40;99.90
55436;DHT22;41307;53.142;6.430;2023-08-01T05:48:08;15.50;99.90
55436;DHT22;41307;53.142;6.430;2023-08-01T05:50:34;15.60;99.90
55436;DHT22;41307;53.142;6.430;2023-08-01T05:53:00;15.50;99.90
55436;DHT22;41307;53.142;6.430;2023-08-01T05:55:25;15.50;99.90
55436;DHT22;41307;53.142;6.430;2023-08-01T05:57:54;15.60;99.90
55436;DHT22;41307;53.142;6.430;2023-08-01T06:00:22;15.60;99.90
55436;DHT22;41307;53.142;6.430;2023-08-01T06:02:48;15.60;99.90
55436;DHT22;41307;53.142;6.430;2023-08-01T06:05:14;15.60;99.90
55436;DHT22;41307;53.142;6.430;2023-08-01T06:07:40;15.60;99.90
55436;DHT22;41307;53.142;6.430;2023-08-01T06:10:06;15.60;99.90
55436;DHT22;41307;53.142;6.430;2023-08-01T06:12:32;15.60;99.90
55436;DHT22;41307;53.142;6.430;2023-08-01T06:14:57;15.50;99.90
55436;DHT22;41307;53.142;6.430;2023-08-01T06:17:23;15.60;99.90
55436;DHT22;41307;53.142;6.430;2023-08-01T06:19:49;15.60;99.90
55436;DHT22;41307;53.142;6.430;2023-08-01T06:22:15;15.50;99.90
55436;DHT22;41307;53.142;6.430;2023-08-01T06:24:41;15.40;99.90
55436;DHT22;41307;53.142;6.430;2023-08-01T06:27:07;15.40;99.90
55436;DHT22;41307;53.142;6.430;2023-08-01T06:29:32;15.40;99.90
55436;DHT22;41307;53.142;6.430;2023-08-01T06:31:58;15.40;99.90
55436;DHT22;41307;53.142;6.430;2023-08-01T06:34:24;15.40;99.90
55436;DHT22;41307;53.142;6.430;2023-08-01T06:36:50;15.40;99.90
55436;DHT22;41307;53.142;6.430;2023-08-01T06:39:16;15.40;99.90
55436;DHT22;41307;53.142;6.430;2023-08-01T06:41:42;15.50;99.90
55436;DHT22;41307;53.142;6.430;2023-08-01T06:44:07;15.70;99.90
55436;DHT22;41307;53.142;6.430;2023-08-01T06:46:33;15.90;99.90
55436;DHT22;41307;53.142;6.430;2023-08-01T06:48:59;16.20;99.90
55436;DHT22;41307;53.142;6.430;2023-08-01T06:51:25;16.40;99.90
55436;DHT22;41307;53.142;6.430;2023-08-01T06:53:51;16.70;99.90
55436;DHT22;41307;53.142;6.430;2023-08-01T06:56:16;16.90;99.90
55436;DHT22;41307;53.142;6.430;2023-08-01T06:58:42;17.00;99.90
55436;DHT22;41307;53.142;6.430;2023-08-01T07:01:08;17.10;99.90
55436;DHT22;41307;53.142;6.430;2023-08-01T07:03:33;17.20;99.90
55436;DHT22;41307;53.142;6.430;2023-08-01T07:05:59;17.20;99.90
55436;DHT22;41307;53.142;6.430;2023-08-01T07:08:25;17.20;99.90
55436;DHT22;41307;53.142;6.430;2023-08-01T07:10:51;17.10;99.90
55436;DHT22;41307;53.142;6.430;2023-08-01T07:13:17;17.00;99.90
55436;DHT22;41307;53.142;6.430;2023-08-01T07:15:45;16.80;99.90
55436;DHT22;41307;53.142;6.430;2023-08-01T07:18:10;16.80;99.90
55436;DHT22;41307;53.142;6.430;2023-08-01T07:20:36;16.70;99.90
55436;DHT22;41307;53.142;6.430;2023-08-01T07:23:02;16.50;99.90
55436;DHT22;41307;53.142;6.430;2023-08-01T07:25:28;16.50;99.90
55436;DHT22;41307;53.142;6.430;2023-08-01T07:27:53;16.40;99.90
55436;DHT22;41307;53.142;6.430;2023-08-01T07:30:19;16.30;99.90
55436;DHT22;41307;53.142;6.430;2023-08-01T07:32:45;16.30;99.90
55436;DHT22;41307;53.142;6.430;2023-08-01T07:35:13;16.40;99.90
55436;DHT22;41307;53.142;6.430;2023-08-01T07:37:39;16.50;99.90
55436;DHT22;41307;53.142;6.430;2023-08-01T07:40:08;16.40;99.90
55436;DHT22;41307;53.142;6.430;2023-08-01T07:42:34;16.30;99.90
55436;DHT22;41307;53.142;6.430;2023-08-01T07:45:00;16.30;99.90
55436;DHT22;41307;53.142;6.430;2023-08-01T07:47:26;16.10;99.90
55436;DHT22;41307;53.142;6.430;2023-08-01T07:49:52;16.00;99.90
55436;DHT22;41307;53.142;6.430;2023-08-01T07:52:18;15.90;99.90
55436;DHT22;41307;53.142;6.430;2023-08-01T07:54:43;15.80;99.90
55436;DHT22;41307;53.142;6.430;2023-08-01T07:57:09;16.00;99.90
55436;DHT22;41307;53.142;6.430;2023-08-01T07:59:35;16.00;99.90
55436;DHT22;41307;53.142;6.430;2023-08-01T08:02:00;16.00;99.90
55436;DHT22;41307;53.142;6.430;2023-08-01T08:04:26;16.20;99.90
55436;DHT22;41307;53.142;6.430;2023-08-01T08:06:52;16.20;99.90
55436;DHT22;41307;53.142;6.430;2023-08-01T08:09:20;16.30;99.90
55436;DHT22;41307;53.142;6.430;2023-08-01T08:11:48;16.40;99.90
55436;DHT22;41307;53.142;6.430;2023-08-01T08:14:14;16.40;99.90
55436;DHT22;41307;53.142;6.430;2023-08-01T08:16:41;16.30;99.90
55436;DHT22;41307;53.142;6.430;2023-08-01T08:19:07;16.30;99.90
55436;DHT22;41307;53.142;6.430;2023-08-01T08:21:32;16.20;99.90
55436;DHT22;41307;53.142;6.430;2023-08-01T08:23:58;16.20;99.90
55436;DHT22;41307;53.142;6.430;2023-08-01T08:26:25;16.20;99.90
55436;DHT22;41307;53.142;6.430;2023-08-01T08:28:51;16.10;99.90
55436;DHT22;41307;53.142;6.430;2023-08-01T08:31:17;16.10;99.90
55436;DHT22;41307;53.142;6.430;2023-08-01T08:33:43;16.10;99.90
55436;DHT22;41307;53.142;6.430;2023-08-01T08:36:09;16.20;99.90
55436;DHT22;41307;53.142;6.430;2023-08-01T08:38:35;16.10;99.90
55436;DHT22;41307;53.142;6.430;2023-08-01T08:41:13;16.30;99.90
55436;DHT22;41307;53.142;6.430;2023-08-01T08:43:39;16.30;99.90
55436;DHT22;41307;53.142;6.430;2023-08-01T08:46:08;16.30;99.90
55436;DHT22;41307;53.142;6.430;2023-08-01T08:48:35;16.40;99.90
55436;DHT22;41307;53.142;6.430;2023-08-01T08:51:03;16.30;99.90
55436;DHT22;41307;53.142;6.430;2023-08-01T08:53:31;16.30;99.90
55436;DHT22;41307;53.142;6.430;2023-08-01T08:55:59;16.40;99.90
55436;DHT22;41307;53.142;6.430;2023-08-01T08:58:25;16.60;99.90
55436;DHT22;41307;53.142;6.430;2023-08-01T09:00:51;16.80;99.90
55436;DHT22;41307;53.142;6.430;2023-08-01T09:03:17;17.00;99.90
55436;DHT22;41307;53.142;6.430;2023-08-01T09:05:51;17.10;99.90
55436;DHT22;41307;53.142;6.430;2023-08-01T09:08:21;17.30;99.90
55436;DHT22;41307;53.142;6.430;2023-08-01T09:10:50;17.30;99.90
55436;DHT22;41307;53.142;6.430;2023-08-01T09:13:16;17.30;99.90
55436;DHT22;41307;53.142;6.430;2023-08-01T09:15:42;17.20;99.90
55436;DHT22;41307;53.142;6.430;2023-08-01T09:18:11;17.30;99.90
55436;DHT22;41307;53.142;6.430;2023-08-01T09:21:03;17.40;99.90
55436;DHT22;41307;53.142;6.430;2023-08-01T09:23:29;17.60;99.90
55436;DHT22;41307;53.142;6.430;2023-08-01T09:25:56;17.80;99.90
55436;DHT22;41307;53.142;6.430;2023-08-01T09:28:23;18.40;99.90
55436;DHT22;41307;53.142;6.430;2023-08-01T09:30:51;19.00;99.90
55436;DHT22;41307;53.142;6.430;2023-08-01T09:33:18;19.90;99.90
55436;DHT22;41307;53.142;6.430;2023-08-01T09:35:44;20.60;99.90
55436;DHT22;41307;53.142;6.430;2023-08-01T09:38:15;21.00;99.90
55436;DHT22;41307;53.142;6.430;2023-08-01T09:40:45;21.20;99.90
55436;DHT22;41307;53.142;6.430;2023-08-01T09:43:12;21.30;99.90
55436;DHT22;41307;53.142;6.430;2023-08-01T09:45:48;21.40;99.90
55436;DHT22;41307;53.142;6.430;2023-08-01T09:48:22;21.20;99.90
55436;DHT22;41307;53.142;6.430;2023-08-01T09:50:49;20.70;99.90
55436;DHT22;41307;53.142;6.430;2023-08-01T09:53:14;20.70;99.90
55436;DHT22;41307;53.142;6.430;2023-08-01T09:55:43;20.40;99.90
55436;DHT22;41307;53.142;6.430;2023-08-01T09:58:17;20.00;99.90
55436;DHT22;41307;53.142;6.430;2023-08-01T10:00:45;19.70;99.90
55436;DHT22;41307;53.142;6.430;2023-08-01T10:03:11;19.60;99.90
55436;DHT22;41307;53.142;6.430;2023-08-01T10:05:38;19.20;99.90
55436;DHT22;41307;53.142;6.430;2023-08-01T10:08:05;19.20;99.90
55436;DHT22;41307;53.142;6.430;2023-08-01T10:10:32;18.90;99.90
55436;DHT22;41307;53.142;6.430;2023-08-01T10:12:58;18.80;99.90
55436;DHT22;41307;53.142;6.430;2023-08-01T10:15:27;18.80;99.90
55436;DHT22;41307;53.142;6.430;2023-08-01T10:17:53;18.80;99.90
55436;DHT22;41307;53.142;6.430;2023-08-01T10:20:21;18.70;99.90
55436;DHT22;41307;53.142;6.430;2023-08-01T10:22:49;18.60;99.90
55436;DHT22;41307;53.142;6.430;2023-08-01T10:25:16;18.50;99.90
55436;DHT22;41307;53.142;6.430;2023-08-01T10:27:42;18.70;99.90
55436;DHT22;41307;53.142;6.430;2023-08-01T10:30:08;18.90;99.90
55436;DHT22;41307;53.142;6.430;2023-08-01T10:32:37;19.10;99.90
55436;DHT22;41307;53.142;6.430;2023-08-01T10:35:03;19.40;99.90
55436;DHT22;41307;53.142;6.430;2023-08-01T10:37:43;19.60;99.90
55436;DHT22;41307;53.142;6.430;2023-08-01T10:40:10;19.60;99.90
55436;DHT22;41307;53.142;6.430;2023-08-01T10:42:40;19.60;99.90
55436;DHT22;41307;53.142;6.430;2023-08-01T10:45:07;19.80;99.90
55436;DHT22;41307;53.142;6.430;2023-08-01T10:47:35;19.70;99.90
55436;DHT22;41307;53.142;6.430;2023-08-01T10:50:01;19.50;99.90
55436;DHT22;41307;53.142;6.430;2023-08-01T10:52:28;19.30;99.90
55436;DHT22;41307;53.142;6.430;2023-08-01T10:55:04;19.40;99.90
55436;DHT22;41307;53.142;6.430;2023-08-01T10:57:35;19.80;99.90
55436;DHT22;41307;53.142;6.430;2023-08-01T11:00:02;20.20;99.90
55436;DHT22;41307;53.142;6.430;2023-08-01T11:02:30;20.40;99.90
55436;DHT22;41307;53.142;6.430;2023-08-01T11:05:06;20.40;99.90
55436;DHT22;41307;53.142;6.430;2023-08-01T11:07:34;20.70;99.90
55436;DHT22;41307;53.142;6.430;2023-08-01T11:10:08;20.90;99.90
55436;DHT22;41307;53.142;6.430;2023-08-01T11:12:39;20.90;99.90
55436;DHT22;41307;53.142;6.430;2023-08-01T11:15:07;20.90;99.90
55436;DHT22;41307;53.142;6.430;2023-08-01T11:17:38;20.60;99.90
55436;DHT22;41307;53.142;6.430;2023-08-01T11:20:09;20.70;99.90
55436;DHT22;41307;53.142;6.430;2023-08-01T11:22:36;20.90;99.90
55436;DHT22;41307;53.142;6.430;2023-08-01T11:25:03;21.10;99.90
55436;DHT22;41307;53.142;6.430;2023-08-01T11:27:29;21.10;99.90
55436;DHT22;41307;53.142;6.430;2023-08-01T11:29:55;21.20;99.90
55436;DHT22;41307;53.142;6.430;2023-08-01T11:32:21;21.20;99.90
55436;DHT22;41307;53.142;6.430;2023-08-01T11:34:48;21.20;99.90
55436;DHT22;41307;53.142;6.430;2023-08-01T11:37:17;21.10;99.90
55436;DHT22;41307;53.142;6.430;2023-08-01T11:39:44;21.10;99.90
55436;DHT22;41307;53.142;6.430;2023-08-01T11:42:15;21.30;99.90
55436;DHT22;41307;53.142;6.430;2023-08-01T11:44:42;21.40;99.90
55436;DHT22;41307;53.142;6.430;2023-08-01T11:47:15;21.60;99.90
55436;DHT22;41307;53.142;6.430;2023-08-01T11:49:48;21.60;99.90
55436;DHT22;41307;53.142;6.430;2023-08-01T11:52:24;21.50;99.90
55436;DHT22;41307;53.142;6.430;2023-08-01T11:54:51;21.40;99.90
55436;DHT22;41307;53.142;6.430;2023-08-01T11:57:16;21.20;99.90
55436;DHT22;41307;53.142;6.430;2023-08-01T11:59:50;21.00;99.90
55436;DHT22;41307;53.142;6.430;2023-08-01T12:02:26;20.80;99.90
55436;DHT22;41307;53.142;6.430;2023-08-01T12:04:53;20.60;99.90
55436;DHT22;41307;53.142;6.430;2023-08-01T12:07:20;20.60;99.90
55436;DHT22;41307;53.142;6.430;2023-08-01T12:09:59;20.70;99.90
55436;DHT22;41307;53.142;6.430;2023-08-01T12:12:27;21.20;99.90
55436;DHT22;41307;53.142;6.430;2023-08-01T12:14:53;21.70;99.90
55436;DHT22;41307;53.142;6.430;2023-08-01T12:17:20;21.50;99.90
55436;DHT22;41307;53.142;6.430;2023-08-01T12:19:45;21.10;99.90
55436;DHT22;41307;53.142;6.430;2023-08-01T12:22:12;20.70;99.90
55436;DHT22;41307;53.142;6.430;2023-08-01T12:24:38;20.60;99.90
55436;DHT22;41307;53.142;6.430;2023-08-01T12:27:08;20.30;99.90
55436;DHT22;41307;53.142;6.430;2023-08-01T12:29:35;20.10;99.90
55436;DHT22;41307;53.142;6.430;2023-08-01T12:32:02;20.20;99.90
55436;DHT22;41307;53.142;6.430;2023-08-01T12:34:28;20.30;99.90
55436;DHT22;41307;53.142;6.430;2023-08-01T12:36:54;20.60;99.90
55436;DHT22;41307;53.142;6.430;2023-08-01T12:39:19;20.90;99.90
55436;DHT22;41307;53.142;6.430;2023-08-01T12:41:45;21.00;99.90
55436;DHT22;41307;53.142;6.430;2023-08-01T12:44:11;21.20;99.90
55436;DHT22;41307;53.142;6.430;2023-08-01T12:46:37;21.30;99.90
55436;DHT22;41307;53.142;6.430;2023-08-01T12:49:04;21.10;99.90
55436;DHT22;41307;53.142;6.430;2023-08-01T12:51:30;21.00;99.90
55436;DHT22;41307;53.142;6.430;2023-08-01T12:53:56;21.00;99.90
55436;DHT22;41307;53.142;6.430;2023-08-01T12:56:21;20.90;99.90
55436;DHT22;41307;53.142;6.430;2023-08-01T12:58:47;20.80;99.90
55436;DHT22;41307;53.142;6.430;2023-08-01T13:01:13;20.90;99.90
55436;DHT22;41307;53.142;6.430;2023-08-01T13:03:38;21.10;99.90
55436;DHT22;41307;53.142;6.430;2023-08-01T13:06:04;21.20;99.90
55436;DHT22;41307;53.142;6.430;2023-08-01T13:08:30;20.90;99.90
55436;DHT22;41307;53.142;6.430;2023-08-01T13:10:56;20.60;99.90
55436;DHT22;41307;53.142;6.430;2023-08-01T13:13:25;20.20;99.90
55436;DHT22;41307;53.142;6.430;2023-08-01T13:15:50;20.10;99.90
55436;DHT22;41307;53.142;6.430;2023-08-01T13:18:16;20.00;99.90
55436;DHT22;41307;53.142;6.430;2023-08-01T13:20:43;19.90;99.90
55436;DHT22;41307;53.142;6.430;2023-08-01T13:23:09;20.00;99.90
55436;DHT22;41307;53.142;6.430;2023-08-01T13:25:34;20.20;99.90
55436;DHT22;41307;53.142;6.430;2023-08-01T13:28:01;20.30;99.90
55436;DHT22;41307;53.142;6.430;2023-08-01T13:30:26;20.30;99.90
55436;DHT22;41307;53.142;6.430;2023-08-01T13:32:52;20.30;99.90
55436;DHT22;41307;53.142;6.430;2023-08-01T13:35:18;20.20;99.90
55436;DHT22;41307;53.142;6.430;2023-08-01T13:37:43;20.00;99.90
55436;DHT22;41307;53.142;6.430;2023-08-01T13:40:11;19.80;99.90
55436;DHT22;41307;53.142;6.430;2023-08-01T13:42:39;19.80;99.90
55436;DHT22;41307;53.142;6.430;2023-08-01T13:45:06;19.70;99.90
55436;DHT22;41307;53.142;6.430;2023-08-01T13:47:32;19.50;99.90
55436;DHT22;41307;53.142;6.430;2023-08-01T13:49:57;19.40;99.90
55436;DHT22;41307;53.142;6.430;2023-08-01T13:52:23;19.40;99.90
55436;DHT22;41307;53.142;6.430;2023-08-01T13:54:49;19.60;99.90
55436;DHT22;41307;53.142;6.430;2023-08-01T13:57:15;19.70;99.90
55436;DHT22;41307;53.142;6.430;2023-08-01T13:59:40;19.50;99.90
55436;DHT22;41307;53.142;6.430;2023-08-01T14:02:06;19.70;99.90
55436;DHT22;41307;53.142;6.430;2023-08-01T14:04:32;19.80;99.90
55436;DHT22;41307;53.142;6.430;2023-08-01T14:06:57;19.80;99.90
55436;DHT22;41307;53.142;6.430;2023-08-01T14:09:23;20.00;99.90
55436;DHT22;41307;53.142;6.430;2023-08-01T14:11:49;20.10;99.90
55436;DHT22;41307;53.142;6.430;2023-08-01T14:14:15;20.20;99.90
55436;DHT22;41307;53.142;6.430;2023-08-01T14:16:40;20.10;99.90
55436;DHT22;41307;53.142;6.430;2023-08-01T14:19:06;19.90;99.90
55436;DHT22;41307;53.142;6.430;2023-08-01T14:21:34;19.70;99.90
55436;DHT22;41307;53.142;6.430;2023-08-01T14:24:00;19.40;99.90
55436;DHT22;41307;53.142;6.430;2023-08-01T14:26:26;19.10;99.90
55436;DHT22;41307;53.142;6.430;2023-08-01T14:28:52;19.00;99.90
55436;DHT22;41307;53.142;6.430;2023-08-01T14:31:18;18.90;99.90
55436;DHT22;41307;53.142;6.430;2023-08-01T14:33:43;18.90;99.90
55436;DHT22;41307;53.142;6.430;2023-08-01T14:36:09;18.90;99.90
55436;DHT22;41307;53.142;6.430;2023-08-01T14:38:41;19.00;99.90
55436;DHT22;41307;53.142;6.430;2023-08-01T14:41:06;19.00;99.90
55436;DHT22;41307;53.142;6.430;2023-08-01T14:43:32;19.00;99.90
55436;DHT22;41307;53.142;6.430;2023-08-01T14:46:00;19.00;99.90
55436;DHT22;41307;53.142;6.430;2023-08-01T14:48:26;19.00;99.90
55436;DHT22;41307;53.142;6.430;2023-08-01T14:50:52;19.20;99.90
55436;DHT22;41307;53.142;6.430;2023-08-01T14:53:18;19.20;99.90
55436;DHT22;41307;53.142;6.430;2023-08-01T14:55:44;18.80;99.90
55436;DHT22;41307;53.142;6.430;2023-08-01T14:58:09;19.10;99.90
55436;DHT22;41307;53.142;6.430;2023-08-01T15:00:36;19.00;99.90
55436;DHT22;41307;53.142;6.430;2023-08-01T15:03:01;19.00;99.90
55436;DHT22;41307;53.142;6.430;2023-08-01T15:05:27;18.90;99.90
55436;DHT22;41307;53.142;6.430;2023-08-01T15:07:53;18.80;99.90
55436;DHT22;41307;53.142;6.430;2023-08-01T15:10:19;18.80;99.90
55436;DHT22;41307;53.142;6.430;2023-08-01T15:12:44;18.90;99.90
55436;DHT22;41307;53.142;6.430;2023-08-01T15:15:10;19.00;99.90
55436;DHT22;41307;53.142;6.430;2023-08-01T15:17:36;19.20;99.90
55436;DHT22;41307;53.142;6.430;2023-08-01T15:20:02;19.30;99.90
55436;DHT22;41307;53.142;6.430;2023-08-01T15:22:28;19.20;99.90
55436;DHT22;41307;53.142;6.430;2023-08-01T15:24:54;19.20;99.90
55436;DHT22;41307;53.142;6.430;2023-08-01T15:27:20;19.00;99.90